Terminal Aerodrome Forecast
Issued by NWS Mt. Holly, NJ

Home | Current Version | Previous Version | Text Only | Print | Product List | Glossary On
Versions: 1 2 3 4 5 6 7 8 9 10 11 12 13 14 15 16 17 18 19 20 21 22 23
491
FTUS41 KPHI 142346 AAA
TAFRDG
TAF AMD
KRDG 142346Z 1500/1524 32006KT P6SM SCT200
     FM150600 VRB02KT P6SM BKN150
     FM151800 19004KT P6SM OVC035
     FM152200 VRB03KT P6SM BKN040=

USA.gov is the U.S. government's official web portal to all federal, state and local government web resources and services.